Time;durP1;ratioP1;P1;durP2;ratioP2;P2;SDS_P1;SDS_P2;PMS_P1;PMS_P2;Temp;Humidity;BMP_temperature;BMP_pressure;BME280_temperature;BME280_humidity;BME280_pressure;Samples;Min_cycle;Max_cycle;Signal;HPM_P1;HPM_P2
2022/12/28 00:03:36;;;;;;;0.00;0.00;;;;;;;5.31;100.00;101785.50;10452631;28;20068;-88
2022/12/28 00:08:39;;;;;;;1.65;0.75;;;;;;;5.05;100.00;101782.22;10436738;28;20104;-88
2022/12/28 00:14:00;;;;;;;0.90;0.73;;;;;;;5.16;100.00;101794.78;10452766;28;20514;-88
2022/12/28 00:19:05;;;;;;;0.90;0.25;;;;;;;5.10;100.00;101789.28;10452345;28;20476;-88
2022/12/28 00:24:13;;;;;;;1.95;0.85;;;;;;;5.15;100.00;101785.34;10452475;28;20044;-88
2022/12/28 00:29:15;;;;;;;0.47;0.20;;;;;;;5.13;100.00;101776.69;10452404;28;20076;-88
2022/12/28 00:34:18;;;;;;;0.25;0.17;;;;;;;5.24;100.00;101765.47;10432512;28;20041;-88
2022/12/28 00:39:20;;;;;;;0.15;0.15;;;;;;;5.08;100.00;101744.09;10451944;28;20053;-88
2022/12/28 00:44:22;;;;;;;0.03;0.00;;;;;;;5.10;100.00;101726.31;10451241;28;20049;-87
2022/12/28 00:49:23;;;;;;;0.05;0.05;;;;;;;5.20;100.00;101732.84;10448032;28;20040;-88
2022/12/28 00:54:26;;;;;;;0.00;0.00;;;;;;;5.28;100.00;101729.09;10452375;28;20038;-88
2022/12/28 00:59:28;;;;;;;0.00;0.00;;;;;;;5.29;100.00;101725.75;10434256;28;20127;-89
2022/12/28 01:04:29;;;;;;;0.00;0.00;;;;;;;5.34;100.00;101711.56;10450938;28;20055;-88
2022/12/28 01:09:31;;;;;;;0.15;0.03;;;;;;;5.37;100.00;101706.66;10434614;28;20052;-89
2022/12/28 01:14:33;;;;;;;0.75;0.45;;;;;;;5.38;100.00;101688.00;10421256;28;20067;-88
2022/12/28 01:19:35;;;;;;;0.00;0.00;;;;;;;5.56;100.00;101682.19;10451026;28;20122;-89
2022/12/28 01:24:38;;;;;;;0.00;0.00;;;;;;;5.59;100.00;101676.38;10457418;28;20056;-87
2022/12/28 01:29:39;;;;;;;0.10;0.08;;;;;;;5.55;100.00;101668.53;10442640;28;20048;-86
2022/12/28 01:34:41;;;;;;;0.00;0.00;;;;;;;5.63;100.00;101642.53;10459011;28;20478;-87
2022/12/28 01:39:45;;;;;;;1.90;0.10;;;;;;;5.62;100.00;101625.44;10458646;28;20048;-88
2022/12/28 01:44:50;;;;;;;0.45;0.30;;;;;;;5.76;100.00;101616.00;10442494;28;20515;-87
2022/12/28 01:50:06;;;;;;;0.00;0.00;;;;;;;5.75;100.00;101602.31;10458566;28;20122;-87
2022/12/28 01:55:24;;;;;;;0.00;0.00;;;;;;;5.77;100.00;101592.19;10457541;28;20048;-86
2022/12/28 02:00:26;;;;;;;0.00;0.00;;;;;;;5.88;100.00;101563.84;10427573;28;20415;-86
2022/12/28 02:05:35;;;;;;;0.00;0.00;;;;;;;6.09;100.00;101547.09;10456719;28;20037;-87
2022/12/28 02:10:38;;;;;;;0.13;0.13;;;;;;;6.08;100.00;101532.53;10439225;28;20037;-87
2022/12/28 02:15:46;;;;;;;0.13;0.13;;;;;;;6.17;100.00;101516.03;10457408;28;20071;-87
2022/12/28 02:21:06;;;;;;;0.05;0.05;;;;;;;6.18;100.00;101509.22;10457064;28;20056;-87
2022/12/28 02:26:18;;;;;;;0.65;0.45;;;;;;;6.19;100.00;101487.94;10457158;28;20164;-86
2022/12/28 02:31:27;;;;;;;3.00;2.28;;;;;;;6.39;100.00;101486.44;10448440;28;20135;-88
2022/12/28 02:36:40;;;;;;;0.00;0.00;;;;;;;6.26;100.00;101467.00;10461873;28;20102;-87
2022/12/28 02:41:45;;;;;;;0.10;0.10;;;;;;;6.19;100.00;101476.03;10456634;28;20045;-87
2022/12/28 02:52:32;;;;;;;0.00;0.00;;;;;;;6.09;100.00;101493.34;10456107;28;20041;-88
2022/12/28 02:57:50;;;;;;;0.03;0.03;;;;;;;5.99;100.00;101486.88;10455447;28;20102;-87
2022/12/28 03:03:18;;;;;;;0.10;0.10;;;;;;;5.92;100.00;101490.72;10455294;28;20041;-88
2022/12/28 03:08:31;;;;;;;0.10;0.05;;;;;;;5.92;100.00;101493.28;10443952;28;20102;-87
2022/12/28 03:13:43;;;;;;;0.00;0.00;;;;;;;5.97;100.00;101502.13;10442321;28;20042;-88
2022/12/28 03:35:10;;;;;;;0.10;0.10;;;;;;;6.00;100.00;101573.91;10455389;28;20037;-87
2022/12/28 03:40:44;;;;;;;0.00;0.00;;;;;;;5.95;100.00;101554.84;10435953;28;20502;-87
2022/12/28 03:45:55;;;;;;;0.00;0.00;;;;;;;6.08;100.00;101555.53;10453568;28;20044;-87
2022/12/28 03:50:57;;;;;;;0.13;0.13;;;;;;;6.08;100.00;101555.53;10454153;28;20131;-86
2022/12/28 03:56:07;;;;;;;0.52;0.22;;;;;;;6.10;100.00;101543.72;10435317;28;20054;-88
2022/12/28 04:01:09;;;;;;;0.00;0.00;;;;;;;6.13;100.00;101533.69;10453718;28;20049;-88
2022/12/28 04:06:15;;;;;;;0.00;0.00;;;;;;;6.10;100.00;101542.06;10453821;28;20055;-90
2022/12/28 04:11:17;;;;;;;0.10;0.10;;;;;;;6.37;100.00;101540.91;10442628;28;20045;-88
2022/12/28 04:16:25;;;;;;;0.28;0.10;;;;;;;6.37;100.00;101543.47;10439024;28;20052;-89
2022/12/28 04:21:28;;;;;;;0.00;0.00;;;;;;;7.76;100.00;101527.34;10452013;28;20041;-90
2022/12/28 04:26:30;;;;;;;0.10;0.10;;;;;;;7.67;100.00;101501.25;10449321;28;20052;-87
2022/12/28 04:31:31;;;;;;;0.00;0.00;;;;;;;7.38;100.00;101480.25;10452748;28;20562;-88
2022/12/28 04:36:38;;;;;;;0.43;0.40;;;;;;;7.65;100.00;101488.38;10452434;28;20597;-89
2022/12/28 04:41:45;;;;;;;0.55;0.20;;;;;;;7.50;100.00;101475.69;10439230;28;20404;-88
2022/12/28 04:46:46;;;;;;;0.75;0.35;;;;;;;7.94;100.00;101450.38;10452379;28;20056;-88
2022/12/28 04:51:48;;;;;;;0.10;0.10;;;;;;;7.82;100.00;101419.91;10451626;28;20037;-88
2022/12/28 04:56:50;;;;;;;0.00;0.00;;;;;;;7.93;100.00;101422.94;10452642;28;20060;-88
2022/12/28 05:01:51;;;;;;;0.52;0.15;;;;;;;8.08;100.00;101409.91;10439480;28;20042;-89
2022/12/28 05:06:53;;;;;;;0.10;0.10;;;;;;;8.15;100.00;101417.09;10451466;28;20037;-90
2022/12/28 05:11:54;;;;;;;0.22;0.20;;;;;;;8.20;100.00;101418.16;10450584;28;20056;-88
2022/12/28 05:16:56;;;;;;;0.17;0.17;;;;;;;7.37;100.00;101427.22;10435177;28;20302;-89
2022/12/28 05:21:58;;;;;;;0.43;0.43;;;;;;;8.23;100.00;101410.56;10451348;28;20044;-89
2022/12/28 05:27:00;;;;;;;0.43;0.43;;;;;;;8.23;100.00;101395.19;10451336;28;20053;-89
2022/12/28 05:32:02;;;;;;;0.00;0.00;;;;;;;8.40;100.00;101400.16;10451294;28;20040;-88
2022/12/28 05:37:03;;;;;;;0.00;0.00;;;;;;;8.56;100.00;101394.91;10434889;28;20449;-87
2022/12/28 05:42:05;;;;;;;0.65;0.30;;;;;;;8.39;100.00;101375.31;10450680;28;20134;-89
2022/12/28 05:47:06;;;;;;;0.10;0.10;;;;;;;8.43;100.00;101392.59;10435467;28;20476;-88
2022/12/28 05:52:08;;;;;;;0.43;0.35;;;;;;;8.33;100.00;101395.59;10423249;28;20067;-89
2022/12/28 05:57:10;;;;;;;0.43;0.38;;;;;;;8.64;100.00;101402.06;10451186;28;20056;-87
2022/12/28 06:02:11;;;;;;;0.75;0.25;;;;;;;8.62;100.00;101393.41;10450885;28;20824;-88
2022/12/28 06:07:13;;;;;;;0.13;0.08;;;;;;;8.65;100.00;101370.44;10451814;28;20122;-88
2022/12/28 06:12:15;;;;;;;0.20;0.20;;;;;;;8.71;100.00;101376.69;10458420;28;20052;-88
2022/12/28 06:17:17;;;;;;;0.13;0.13;;;;;;;8.38;100.00;101363.28;10458031;28;20052;-88
2022/12/28 06:22:18;;;;;;;0.40;0.30;;;;;;;8.62;100.00;101358.34;10457222;28;20118;-87
2022/12/28 06:27:20;;;;;;;0.32;0.20;;;;;;;8.77;100.00;101363.22;10458220;28;20052;-88
2022/12/28 06:32:21;;;;;;;0.28;0.28;;;;;;;8.82;100.00;101346.31;10440385;28;20434;-89
2022/12/28 06:37:23;;;;;;;0.00;0.00;;;;;;;8.78;100.00;101352.13;10458069;28;20041;-89
2022/12/28 06:42:25;;;;;;;0.15;0.15;;;;;;;8.85;100.00;101343.84;10457190;28;20540;-89
2022/12/28 06:47:26;;;;;;;0.50;0.20;;;;;;;9.20;100.00;101348.63;10444121;28;20050;-89
2022/12/28 06:52:28;;;;;;;0.65;0.45;;;;;;;9.10;100.00;101329.41;10431333;28;20091;-89
2022/12/28 06:57:29;;;;;;;0.20;0.10;;;;;;;8.88;100.00;101320.84;10449542;28;20094;-90
2022/12/28 07:02:31;;;;;;;0.63;0.40;;;;;;;9.17;100.00;101344.25;10447671;28;20087;-88
2022/12/28 07:07:33;;;;;;;0.73;0.22;;;;;;;9.01;100.00;101353.03;10445184;28;20144;-89
2022/12/28 07:12:35;;;;;;;0.17;0.17;;;;;;;9.19;100.00;101347.75;10447236;28;20493;-88
2022/12/28 07:17:37;;;;;;;0.40;0.38;;;;;;;9.20;100.00;101341.78;10451161;28;20045;-88
2022/12/28 07:22:39;;;;;;;0.90;0.60;;;;;;;9.23;100.00;101394.13;10455328;28;20103;-89
2022/12/28 07:27:40;;;;;;;0.00;0.00;;;;;;;9.12;100.00;101381.72;10455443;28;20057;-90
2022/12/28 07:32:42;;;;;;;0.10;0.10;;;;;;;9.28;100.00;101366.91;10455405;28;20041;-90
2022/12/28 07:37:45;;;;;;;2.08;0.32;;;;;;;9.23;100.00;101350.44;10442894;28;20190;-90
2022/12/28 07:42:47;;;;;;;0.25;0.20;;;;;;;9.21;100.00;101351.25;10454584;28;20132;-90
2022/12/28 07:47:49;;;;;;;0.32;0.25;;;;;;;9.24;100.00;101339.34;10429742;28;20045;-90
2022/12/28 07:52:53;;;;;;;0.22;0.13;;;;;;;9.31;100.00;101393.59;10454310;28;20040;-90
2022/12/28 07:57:55;;;;;;;0.15;0.15;;;;;;;9.11;100.00;101364.56;10450108;28;20496;-90
2022/12/28 08:03:00;;;;;;;0.10;0.10;;;;;;;9.32;100.00;101358.50;10437104;28;20045;-90
2022/12/28 08:08:02;;;;;;;0.28;0.10;;;;;;;9.16;100.00;101351.88;10432046;28;20045;-89
2022/12/28 08:13:04;;;;;;;0.10;0.10;;;;;;;9.09;100.00;101353.34;10432530;28;20047;-89
2022/12/28 08:18:06;;;;;;;0.30;0.30;;;;;;;9.21;100.00;101351.25;10445192;28;20045;-89
2022/12/28 08:23:08;;;;;;;0.20;0.20;;;;;;;9.29;100.00;101348.09;10436612;28;20045;-90
2022/12/28 08:28:10;;;;;;;0.60;0.28;;;;;;;9.29;100.00;101348.97;10434392;28;20079;-90
2022/12/28 08:33:12;;;;;;;0.10;0.10;;;;;;;9.31;100.00;101347.31;10452862;28;20064;-89
2022/12/28 08:38:14;;;;;;;0.00;0.00;;;;;;;9.28;100.00;101356.63;10453726;28;20122;-90
2022/12/28 08:43:15;;;;;;;0.17;0.17;;;;;;;9.36;100.00;101360.38;10452508;28;20403;-89
2022/12/28 08:48:17;;;;;;;0.45;0.35;;;;;;;9.39;100.00;101355.34;10453023;28;20083;-89
2022/12/28 08:53:20;;;;;;;0.00;0.00;;;;;;;9.44;100.00;101348.69;10452771;28;20079;-89
2022/12/28 08:58:22;;;;;;;0.10;0.10;;;;;;;9.59;100.00;101350.06;10453433;28;20057;-90
2022/12/28 09:03:23;;;;;;;1.17;0.20;;;;;;;9.38;100.00;101335.59;10439578;28;20048;-88
2022/12/28 09:08:25;;;;;;;0.20;0.10;;;;;;;9.46;100.00;101336.75;10433389;28;20052;-89
2022/12/28 09:13:28;;;;;;;0.20;0.20;;;;;;;9.56;100.00;101335.41;10432309;28;20060;-90
2022/12/28 09:18:30;;;;;;;0.40;0.20;;;;;;;9.41;100.00;101334.81;10446491;28;20052;-88
2022/12/28 09:23:33;;;;;;;0.35;0.13;;;;;;;9.48;100.00;101345.41;10441083;28;20099;-90
2022/12/28 09:28:35;;;;;;;0.22;0.08;;;;;;;9.63;100.00;101354.53;10439307;28;20537;-89
2022/12/28 09:39:23;;;;;;;0.13;0.10;;;;;;;9.41;100.00;101348.56;10452854;28;20045;-88
2022/12/28 09:44:47;;;;;;;0.32;0.25;;;;;;;9.77;100.00;101348.19;10432354;28;20512;-88
2022/12/28 09:50:28;;;;;;;0.10;0.00;;;;;;;9.69;100.00;101349.59;10446645;28;20046;-88
2022/12/28 09:55:36;;;;;;;0.00;0.00;;;;;;;9.57;100.00;101344.88;10429085;28;20445;-89
2022/12/28 10:00:55;;;;;;;0.00;0.00;;;;;;;9.68;100.00;101337.53;10438562;28;20044;-88
2022/12/28 10:05:57;;;;;;;0.00;0.00;;;;;;;9.62;100.00;101345.03;10433201;28;20658;-88
2022/12/28 10:11:01;;;;;;;0.00;0.00;;;;;;;9.91;100.00;101337.50;10444957;28;20049;-88
2022/12/28 10:16:05;;;;;;;11.82;1.27;;;;;;;9.80;100.00;101317.41;10444921;28;20040;-88
2022/12/28 10:21:06;;;;;;;0.25;0.20;;;;;;;9.97;100.00;101322.28;10452830;28;20484;-89
2022/12/28 10:26:15;;;;;;;0.03;0.03;;;;;;;9.73;100.00;101315.44;10439841;28;20033;-89
2022/12/28 10:31:31;;;;;;;0.25;0.10;;;;;;;9.73;100.00;101312.84;10462732;28;20049;-89
2022/12/28 10:36:33;;;;;;;0.00;0.00;;;;;;;9.82;100.00;101296.88;10433306;28;20049;-89
2022/12/28 10:41:37;;;;;;;0.25;0.10;;;;;;;9.91;100.00;101298.91;10454172;28;20063;-89
2022/12/28 10:46:55;;;;;;;2.08;0.15;;;;;;;9.58;100.00;101289.13;10447485;28;20049;-89
2022/12/28 10:52:06;;;;;;;0.35;0.20;;;;;;;9.91;100.00;101284.31;10445411;28;20045;-89
2022/12/28 10:57:28;;;;;;;0.40;0.25;;;;;;;9.88;100.00;101273.03;10438097;28;20057;-88
2022/12/28 11:02:34;;;;;;;0.00;0.00;;;;;;;10.13;100.00;101265.34;10431996;28;20052;-88
2022/12/28 11:07:42;;;;;;;0.00;0.00;;;;;;;9.97;100.00;101252.78;10451890;28;20048;-89
2022/12/28 11:12:44;;;;;;;0.15;0.15;;;;;;;10.25;100.00;101240.81;10441496;28;20044;-88
2022/12/28 11:17:58;;;;;;;0.20;0.10;;;;;;;10.10;100.00;101239.47;10441741;28;20091;-88
2022/12/28 11:23:03;;;;;;;0.00;0.00;;;;;;;10.22;100.00;101218.41;10437313;28;20045;-89
2022/12/28 11:28:12;;;;;;;0.00;0.00;;;;;;;10.15;100.00;101217.38;10450161;28;20095;-88
2022/12/28 11:33:31;;;;;;;0.03;0.03;;;;;;;10.32;100.00;101219.56;10438286;28;20041;-89
2022/12/28 11:38:42;;;;;;;0.03;0.03;;;;;;;9.96;100.00;101209.84;10458769;28;20107;-89
2022/12/28 11:44:00;;;;;;;0.20;0.20;;;;;;;10.00;100.00;101206.56;10435390;28;20068;-89
2022/12/28 11:49:23;;;;;;;0.20;0.20;;;;;;;10.03;100.00;101206.63;10442274;28;20557;-88
2022/12/28 11:54:49;;;;;;;0.00;0.00;;;;;;;9.85;100.00;101181.16;10433446;28;20048;-88
2022/12/28 11:59:50;;;;;;;0.10;0.10;;;;;;;10.45;100.00;101196.03;10450704;28;20542;-88
2022/12/28 12:05:38;;;;;;;0.00;0.00;;;;;;;10.26;100.00;101191.06;10440587;28;20041;-89
2022/12/28 12:10:45;;;;;;;0.00;0.00;;;;;;;10.56;100.00;101177.41;10426697;28;20042;-89
2022/12/28 12:16:04;;;;;;;0.45;0.13;;;;;;;10.32;100.00;101156.09;10441494;28;20419;-88
2022/12/28 12:21:07;;;;;;;0.47;0.30;;;;;;;10.40;100.00;101150.34;10447214;28;20055;-89
2022/12/28 12:26:26;;;;;;;0.10;0.10;;;;;;;10.52;100.00;101144.69;10448492;28;20049;-89
2022/12/28 12:31:40;;;;;;;0.57;0.57;;;;;;;10.24;100.00;101128.38;10425313;28;20045;-89
2022/12/28 12:37:14;;;;;;;0.13;0.10;;;;;;;10.31;100.00;101117.44;10437552;28;20095;-91
2022/12/28 12:42:35;;;;;;;0.30;0.13;;;;;;;10.67;100.00;101103.91;10442196;28;20052;-90
2022/12/28 12:48:33;;;;;;;0.00;0.00;;;;;;;10.51;100.00;101042.47;10438439;28;20091;-90
2022/12/28 12:53:41;;;;;;;0.03;0.03;;;;;;;10.31;100.00;101032.44;10435454;28;20069;-90
2022/12/28 12:58:57;;;;;;;0.32;0.20;;;;;;;10.37;100.00;101026.59;10441421;28;20420;-89
2022/12/28 13:04:13;;;;;;;0.15;0.15;;;;;;;10.38;100.00;101018.94;10441543;28;20041;-89
2022/12/28 13:09:18;;;;;;;0.00;0.00;;;;;;;10.57;100.00;101014.28;10444813;28;20057;-89
2022/12/28 13:14:24;;;;;;;1.13;0.75;;;;;;;10.40;100.00;100982.91;10430698;28;20051;-90
2022/12/28 13:19:28;;;;;;;0.20;0.17;;;;;;;10.22;100.00;100975.53;10429413;28;20099;-89
2022/12/28 13:24:34;;;;;;;0.10;0.10;;;;;;;10.43;100.00;100976.16;10438223;28;20036;-89
2022/12/28 13:29:39;;;;;;;0.32;0.00;;;;;;;10.37;100.00;100960.53;10440723;28;20052;-88
2022/12/28 13:35:14;;;;;;;3.55;0.68;;;;;;;10.42;100.00;100942.63;10442958;28;20395;-88
2022/12/28 13:40:16;;;;;;;17.13;1.15;;;;;;;10.57;100.00;100932.75;10445252;28;20055;-88
2022/12/28 13:45:21;;;;;;;0.10;0.10;;;;;;;10.33;100.00;100912.28;10432368;28;20099;-89
2022/12/28 13:50:31;;;;;;;0.55;0.20;;;;;;;10.45;100.00;100907.53;10430148;28;20057;-87
2022/12/28 13:55:44;;;;;;;0.00;0.00;;;;;;;10.56;100.00;100894.03;10437534;28;20072;-89
2022/12/28 14:00:47;;;;;;;0.00;0.00;;;;;;;10.48;100.00;100879.25;10421145;28;20103;-87
2022/12/28 14:05:58;;;;;;;0.20;0.10;;;;;;;10.67;100.00;100872.00;10430653;28;20045;-87
2022/12/28 14:11:01;;;;;;;0.65;0.30;;;;;;;10.39;100.00;100866.13;10457515;28;20045;-87
2022/12/28 14:16:04;;;;;;;0.00;0.00;;;;;;;10.32;100.00;100838.44;10441688;28;20056;-88
2022/12/28 14:21:06;;;;;;;0.00;0.00;;;;;;;10.46;100.00;100837.13;10431707;28;20037;-88
2022/12/28 14:26:19;;;;;;;0.17;0.17;;;;;;;10.74;100.00;100826.63;10436582;28;20132;-87
2022/12/28 14:31:26;;;;;;;0.00;0.00;;;;;;;10.56;100.00;100806.44;10434358;28;20049;-87
2022/12/28 14:36:42;;;;;;;0.10;0.10;;;;;;;10.71;100.00;100795.66;10433868;28;21166;-87
2022/12/28 14:41:45;;;;;;;0.10;0.08;;;;;;;10.65;100.00;100780.06;10441012;28;20067;-88
2022/12/28 14:46:51;;;;;;;0.10;0.10;;;;;;;10.73;100.00;100753.63;10447044;28;20436;-87
2022/12/28 14:52:16;;;;;;;0.20;0.20;;;;;;;10.70;100.00;100737.22;10428258;28;20056;-88
2022/12/28 14:57:20;;;;;;;0.10;0.10;;;;;;;10.55;100.00;100737.72;10422959;28;20459;-87
2022/12/28 15:02:32;;;;;;;0.30;0.22;;;;;;;10.76;100.00;100733.06;10424165;28;20045;-87
2022/12/28 15:07:35;;;;;;;0.20;0.20;;;;;;;10.80;100.00;100710.81;10443123;28;20057;-87
2022/12/28 15:12:37;;;;;;;0.17;0.17;;;;;;;10.71;100.00;100703.75;10451716;28;20056;-87
2022/12/28 15:17:38;;;;;;;0.00;0.00;;;;;;;10.82;100.00;100679.94;10444965;28;20052;-87
2022/12/28 15:22:40;;;;;;;0.00;0.00;;;;;;;10.73;100.00;100654.81;10432489;28;20045;-88
2022/12/28 15:27:41;;;;;;;0.10;0.10;;;;;;;10.81;100.00;100657.56;10450005;28;20095;-87
2022/12/28 15:32:43;;;;;;;0.00;0.00;;;;;;;10.81;100.00;100668.75;10420419;28;20523;-87
2022/12/28 15:37:45;;;;;;;0.15;0.15;;;;;;;10.92;100.00;100664.69;10442517;28;20075;-87
2022/12/28 15:42:48;;;;;;;0.40;0.10;;;;;;;10.87;100.00;100643.09;10440456;28;20377;-87
2022/12/28 15:47:55;;;;;;;0.25;0.17;;;;;;;10.76;100.00;100629.13;10449672;28;20041;-87
2022/12/28 15:53:21;;;;;;;0.05;0.05;;;;;;;10.91;100.00;100623.41;10442570;28;20071;-89
2022/12/28 15:58:22;;;;;;;0.10;0.10;;;;;;;10.68;100.00;100603.22;10442908;28;20056;-87
2022/12/28 16:03:24;;;;;;;0.55;0.50;;;;;;;10.58;100.00;100599.56;10450644;28;20042;-84
2022/12/28 16:08:27;;;;;;;0.52;0.40;;;;;;;10.76;100.00;100593.91;10451691;28;20203;-85
2022/12/28 16:13:28;;;;;;;0.20;0.20;;;;;;;10.94;100.00;100580.56;10450705;28;20102;-84
2022/12/28 16:18:30;;;;;;;0.32;0.03;;;;;;;10.81;100.00;100564.81;10444908;28;20049;-83
2022/12/28 16:23:34;;;;;;;2.03;0.50;;;;;;;10.71;100.00;100559.47;10446882;28;20075;-83
2022/12/28 16:28:36;;;;;;;0.22;0.20;;;;;;;10.81;100.00;100544.19;10416572;28;20068;-83
2022/12/28 16:33:38;;;;;;;0.10;0.10;;;;;;;10.47;100.00;100550.41;10435157;28;20049;-83
2022/12/28 16:38:55;;;;;;;0.15;0.15;;;;;;;10.55;100.00;100536.81;10443876;28;20128;-84
2022/12/28 16:44:03;;;;;;;2.50;0.43;;;;;;;10.47;100.00;100528.94;10448324;28;20488;-83
2022/12/28 16:49:04;;;;;;;0.00;0.00;;;;;;;10.19;100.00;100563.50;10441299;28;20080;-83
2022/12/28 16:54:07;;;;;;;0.00;0.00;;;;;;;10.13;100.00;100536.78;10443007;28;20061;-84
2022/12/28 16:59:13;;;;;;;0.00;0.00;;;;;;;10.15;100.00;100537.69;10438454;28;20045;-83
2022/12/28 17:04:20;;;;;;;0.85;0.40;;;;;;;9.93;100.00;100526.03;10437137;28;20045;-84
2022/12/28 17:09:22;;;;;;;0.00;0.00;;;;;;;9.73;100.00;100532.44;10443300;28;20041;-84
2022/12/28 17:14:23;;;;;;;0.22;0.22;;;;;;;9.60;100.00;100533.84;10446611;28;20037;-84
2022/12/28 17:19:38;;;;;;;0.00;0.00;;;;;;;9.86;100.00;100538.75;10445490;28;20552;-85
2022/12/28 17:24:39;;;;;;;0.00;0.00;;;;;;;9.67;100.00;100533.16;10442946;28;20041;-85
2022/12/28 17:29:41;;;;;;;0.08;0.08;;;;;;;9.62;100.00;100529.63;10432156;28;20510;-84
2022/12/28 17:34:43;;;;;;;1.30;0.47;;;;;;;9.41;100.00;100515.44;10450390;28;20045;-84
2022/12/28 17:39:48;;;;;;;0.00;0.00;;;;;;;9.30;100.00;100532.28;10446750;28;20057;-85
2022/12/28 17:44:59;;;;;;;0.03;0.03;;;;;;;8.82;100.00;100549.00;10430756;28;20404;-85
2022/12/28 17:50:08;;;;;;;0.00;0.00;;;;;;;8.64;100.00;100570.78;10434403;28;20045;-86
2022/12/28 17:55:14;;;;;;;0.00;0.00;;;;;;;8.83;100.00;100572.16;10452770;28;20049;-84
2022/12/28 18:00:16;;;;;;;0.52;0.52;;;;;;;8.78;100.00;100583.16;10453413;28;20053;-85
2022/12/28 18:05:18;;;;;;;0.00;0.00;;;;;;;8.86;100.00;100562.00;10451709;28;20037;-85
2022/12/28 18:11:10;;;;;;;0.00;0.00;;;;;;;8.80;100.00;100558.38;10455158;28;20056;-86
2022/12/28 18:16:18;;;;;;;1.08;0.75;;;;;;;8.89;100.00;100556.06;10455454;28;20045;-86
2022/12/28 18:21:22;;;;;;;0.10;0.10;;;;;;;9.09;100.00;100554.03;10460336;28;20053;-86
2022/12/28 18:26:25;;;;;;;0.00;0.00;;;;;;;9.05;100.00;100547.94;10444054;28;20044;-86
2022/12/28 18:31:27;;;;;;;0.25;0.10;;;;;;;8.97;100.00;100534.00;10460281;28;20140;-86
2022/12/28 18:36:29;;;;;;;0.85;0.20;;;;;;;8.85;100.00;100544.84;10454685;28;20444;-86
2022/12/28 18:41:32;;;;;;;0.30;0.05;;;;;;;8.80;100.00;100519.84;10456587;28;20053;-86
2022/12/28 18:46:34;;;;;;;0.05;0.05;;;;;;;9.02;100.00;100518.72;10443504;28;20504;-87
2022/12/28 18:51:39;;;;;;;0.15;0.13;;;;;;;8.96;100.00;100495.44;10443386;28;20044;-86
2022/12/28 18:56:41;;;;;;;0.35;0.35;;;;;;;8.93;100.00;100475.69;10459637;28;20091;-87
2022/12/28 19:01:43;;;;;;;0.32;0.32;;;;;;;8.98;100.00;100494.66;10459283;28;20514;-86
2022/12/28 19:07:04;;;;;;;0.10;0.10;;;;;;;9.06;100.00;100487.13;10437857;28;20049;-86
2022/12/28 19:12:06;;;;;;;0.55;0.30;;;;;;;9.14;100.00;100493.31;10443971;28;20045;-86
2022/12/28 19:17:07;;;;;;;0.13;0.10;;;;;;;9.04;100.00;100481.94;10456351;28;20098;-86
2022/12/28 19:22:11;;;;;;;1.70;0.75;;;;;;;9.08;100.00;100500.03;10449874;28;20450;-87
2022/12/28 19:27:13;;;;;;;0.00;0.00;;;;;;;8.97;100.00;100492.91;10454558;28;20077;-85
2022/12/28 19:32:20;;;;;;;0.00;0.00;;;;;;;8.80;100.00;100489.91;10445136;28;20494;-86
2022/12/28 19:37:21;;;;;;;0.65;0.35;;;;;;;9.00;100.00;100499.81;10439329;28;20048;-87
2022/12/28 19:42:27;;;;;;;0.40;0.30;;;;;;;8.61;100.00;100508.19;10454487;28;20045;-87
2022/12/28 19:47:29;;;;;;;0.15;0.08;;;;;;;8.61;100.00;100510.75;10449174;28;20055;-86
2022/12/28 19:52:32;;;;;;;0.20;0.20;;;;;;;8.49;100.00;100513.88;10454367;28;20060;-87
2022/12/28 19:57:37;;;;;;;0.10;0.10;;;;;;;8.58;100.00;100516.69;10450800;28;20103;-86
2022/12/28 20:02:38;;;;;;;0.10;0.10;;;;;;;8.74;100.00;100587.34;10445658;28;20076;-87
2022/12/28 20:07:40;;;;;;;2.90;0.20;;;;;;;8.70;100.00;100593.19;10438087;28;20131;-86
2022/12/28 20:12:42;;;;;;;0.50;0.22;;;;;;;8.95;100.00;100583.63;10451179;28;20041;-87
2022/12/28 20:17:46;;;;;;;0.10;0.10;;;;;;;8.99;100.00;100582.88;10446961;28;20033;-87
2022/12/28 20:22:47;;;;;;;0.10;0.10;;;;;;;8.96;100.00;100567.38;10447234;28;20041;-86
2022/12/28 20:27:49;;;;;;;0.30;0.30;;;;;;;9.15;100.00;100564.47;10430496;28;20048;-86
2022/12/28 20:32:51;;;;;;;0.00;0.00;;;;;;;9.22;100.00;100552.66;10442744;28;20461;-85
2022/12/28 20:37:52;;;;;;;0.10;0.10;;;;;;;9.21;100.00;100546.63;10435765;28;20049;-85
2022/12/28 20:48:15;;;;;;;0.22;0.22;;;;;;;9.39;100.00;100541.91;10443792;28;20049;-86
2022/12/28 20:53:17;;;;;;;0.30;0.20;;;;;;;9.50;100.00;100541.34;10447669;28;20049;-85
2022/12/28 20:58:19;;;;;;;0.10;0.08;;;;;;;9.57;100.00;100523.50;10452556;28;20057;-85
2022/12/28 21:03:20;;;;;;;0.00;0.00;;;;;;;9.59;100.00;100508.97;10450358;28;20091;-86
2022/12/28 21:08:22;;;;;;;0.08;0.08;;;;;;;9.75;100.00;100518.78;10434009;28;20432;-85
2022/12/28 21:13:31;;;;;;;0.17;0.17;;;;;;;9.81;100.00;100508.63;10429963;28;20051;-85
2022/12/28 21:18:34;;;;;;;0.80;0.65;;;;;;;9.77;100.00;100496.53;10452788;28;20041;-85
2022/12/28 21:23:35;;;;;;;0.70;0.60;;;;;;;9.81;100.00;100485.47;10452472;28;20048;-84
2022/12/28 21:28:37;;;;;;;0.80;0.30;;;;;;;9.90;100.00;100474.53;10440138;28;20076;-85
2022/12/28 21:33:39;;;;;;;0.00;0.00;;;;;;;9.98;100.00;100472.09;10436159;28;20053;-85
2022/12/28 21:38:42;;;;;;;2.55;0.75;;;;;;;10.06;100.00;100454.25;10429923;28;20136;-84
2022/12/28 21:43:44;;;;;;;0.15;0.00;;;;;;;10.07;100.00;100444.00;10455047;28;20049;-84
2022/12/28 21:48:45;;;;;;;0.60;0.52;;;;;;;10.11;100.00;100437.22;10460134;28;20049;-84
2022/12/28 21:53:47;;;;;;;0.10;0.10;;;;;;;10.26;100.00;100426.34;10460529;28;20041;-84
2022/12/28 21:58:49;;;;;;;0.00;0.00;;;;;;;10.27;100.00;100407.47;10443659;28;20404;-84
2022/12/28 22:14:31;;;;;;;0.22;0.22;;;;;;;10.58;100.00;100369.44;10459882;28;20048;-84
2022/12/28 22:19:32;;;;;;;2.28;0.30;;;;;;;10.70;100.00;100350.75;10450542;28;20398;-85
2022/12/28 22:24:34;;;;;;;0.43;0.43;;;;;;;10.62;100.00;100273.31;10439836;28;20080;-84
2022/12/28 22:29:35;;;;;;;0.10;0.10;;;;;;;10.70;100.00;100256.28;10441858;28;20041;-84
2022/12/28 22:34:37;;;;;;;0.00;0.00;;;;;;;10.76;100.00;100269.25;10458511;28;20041;-84
2022/12/28 22:39:39;;;;;;;0.45;0.45;;;;;;;10.81;100.00;100255.59;10442097;28;20480;-85
2022/12/28 22:44:40;;;;;;;0.20;0.10;;;;;;;10.65;100.00;100250.22;10457704;28;20140;-84
2022/12/28 22:49:42;;;;;;;0.17;0.10;;;;;;;10.75;100.00;100222.84;10456848;28;20383;-85
2022/12/28 22:54:45;;;;;;;0.10;0.10;;;;;;;10.86;100.00;100241.03;10457266;28;20041;-85
2022/12/28 22:59:46;;;;;;;0.50;0.50;;;;;;;11.07;100.00;100243.91;10457656;28;20393;-85
2022/12/28 23:04:48;;;;;;;0.30;0.10;;;;;;;10.76;100.00;100233.19;10457485;28;20730;-85
2022/12/28 23:09:50;;;;;;;0.65;0.38;;;;;;;11.07;100.00;100240.47;10457348;28;20083;-84
2022/12/28 23:30:55;;;;;;;0.28;0.28;;;;;;;11.07;100.00;100217.28;10453932;28;20041;-84
2022/12/28 23:36:01;;;;;;;1.25;1.15;;;;;;;11.13;100.00;100213.94;10456135;28;20127;-85
2022/12/28 23:46:26;;;;;;;0.32;0.00;;;;;;;11.15;100.00;100204.47;10455160;28;20492;-85
2022/12/28 23:51:27;;;;;;;0.43;0.20;;;;;;;11.26;100.00;100183.13;10439916;28;20076;-85
2022/12/28 23:56:29;;;;;;;0.00;0.00;;;;;;;11.23;100.00;100174.50;10455511;28;20366;-84
